PWSweather.com
Personal Weather Stations
Station Observations
THAIWX
Pa Daet, Chiang MaiTH 50100

Pa DaetChiang MaiTH 50100

Lat: 18.766158, Lon: 98.97553

Elevation: 1007

Station Type: LaCrosse WS2315

http://www.ThaiWx.yolasite.com/

Latest ConditionsUpdated 9:20:39 AM GMT+07:07 Tuesday, Mar 28, 2017
Currently Today's Max Today's Min Today's Average
Temperature 82.9°F28.3°C 82.9°F28.3°C 76.3°F24.6°C 79.0°F26.1°C
Dew Point 70.8°F21.6°C 70.9°F21.6°C 68.6°F20.3°C 69.4°F20.8°C
Winds 0.2 mph S0.3 kmh S 1.1 mph WSW1.8 kmh WSW - 0.1 mph 0.2 kmh
Wind Gusts 0.9 mph1.4 kmh 1.3 mph2.1 kmh - -
Humidity 67% 78% 67% 73%
Pressure 30.06 in1017.9 mb 30.06 in1017.9 mb 30.00 in1015.9 mb -
Hour Temp Dew Point Humidity Winds Wind Gusts Pressure Precip Precip Rate Daily Precip Total
09:20 AM 82.9°F28.3°C 70.8°F21.6°C 67% 0.2 mph S0.3 kmh S 0.9 mph1.4 kmh 30.06 in1017.9 mb 0.00 in0.0 mm 0.00 in0.0 mm 0.00 in0.0 mm
09:16 AM 82.6°F28.1°C 70.4°F21.3°C 67% Calm Calm 0.9 mph1.4 kmh 30.06 in1017.9 mb 0.00 in0.0 mm 0.00 in0.0 mm 0.00 in0.0 mm
09:09 AM 82.4°F28.0°C 70.7°F21.5°C 68% Calm Calm 1.1 mph1.8 kmh 30.06 in1017.9 mb 0.00 in0.0 mm 0.00 in0.0 mm 0.00 in0.0 mm
09:05 AM 82.2°F27.9°C 70.5°F21.4°C 68% 1.1 mph SSW1.8 kmh SSW 1.1 mph1.8 kmh 30.06 in1017.9 mb 0.00 in0.0 mm 0.00 in0.0 mm 0.00 in0.0 mm
08:59 AM 82.2°F27.9°C 70.5°F21.4°C 68% 0.2 mph WSW0.3 kmh WSW 0.9 mph1.4 kmh 30.06 in1017.9 mb 0.00 in0.0 mm 0.00 in0.0 mm 0.00 in0.0 mm
08:54 AM 82.0°F27.8°C 70.8°F21.6°C 69% Calm Calm 0.9 mph1.4 kmh 30.06 in1017.9 mb 0.00 in0.0 mm 0.00 in0.0 mm 0.00 in0.0 mm
08:50 AM 81.5°F27.5°C 70.8°F21.6°C 70% 0.9 mph SSW1.4 kmh SSW 0.9 mph1.4 kmh 30.06 in1017.9 mb 0.00 in0.0 mm 0.00 in0.0 mm 0.00 in0.0 mm
08:44 AM 81.1°F27.3°C 70.9°F21.6°C 71% Calm Calm 1.1 mph1.8 kmh 30.06 in1017.9 mb 0.00 in0.0 mm 0.00 in0.0 mm 0.00 in0.0 mm
08:39 AM 81.0°F27.2°C 70.7°F21.5°C 71% Calm Calm 1.1 mph1.8 kmh 30.06 in1017.9 mb 0.00 in0.0 mm 0.00 in0.0 mm 0.00 in0.0 mm
08:35 AM 80.8°F27.1°C 70.5°F21.4°C 71% 1.1 mph WSW1.8 kmh WSW 1.1 mph1.8 kmh 30.06 in1017.9 mb 0.00 in0.0 mm 0.00 in0.0 mm 0.00 in0.0 mm
08:29 AM 80.4°F26.9°C 70.6°F21.4°C 72% Calm Calm 1.3 mph2.1 kmh 30.06 in1017.9 mb 0.00 in0.0 mm 0.00 in0.0 mm 0.00 in0.0 mm
08:24 AM 80.2°F26.8°C 70.4°F21.3°C 72% Calm Calm 1.3 mph2.1 kmh 30.06 in1017.9 mb 0.00 in0.0 mm 0.00 in0.0 mm 0.00 in0.0 mm
08:18 AM 79.9°F26.6°C 70.4°F21.3°C 73% 1.1 mph WSW1.8 kmh WSW 1.1 mph1.8 kmh 30.06 in1017.9 mb 0.00 in0.0 mm 0.00 in0.0 mm 0.00 in0.0 mm
08:14 AM 79.5°F26.4°C 70.5°F21.4°C 74% Calm Calm -- 30.05 in1017.6 mb 0.00 in0.0 mm 0.00 in0.0 mm 0.00 in0.0 mm
08:07 AM 79.3°F26.3°C 70.7°F21.5°C 75% Calm Calm 0.7 mph1.1 kmh 30.05 in1017.6 mb 0.00 in0.0 mm 0.00 in0.0 mm 0.00 in0.0 mm
08:03 AM 79.0°F26.1°C 70.3°F21.3°C 75% 0.7 mph SSW1.1 kmh SSW 0.7 mph1.1 kmh 30.05 in1017.6 mb 0.00 in0.0 mm 0.00 in0.0 mm 0.00 in0.0 mm
07:57 AM 78.6°F25.9°C 70.0°F21.1°C 75% Calm Calm 0.4 mph0.6 kmh 30.04 in1017.3 mb 0.00 in0.0 mm 0.00 in0.0 mm 0.00 in0.0 mm
07:52 AM 78.4°F25.8°C 70.2°F21.2°C 76% 0.2 mph SW0.3 kmh SW 0.2 mph0.3 kmh 30.04 in1017.3 mb 0.00 in0.0 mm 0.00 in0.0 mm 0.00 in0.0 mm
07:46 AM 77.9°F25.5°C 70.1°F21.2°C 77% 0.2 mph SW0.3 kmh SW 0.4 mph0.6 kmh 30.04 in1017.3 mb 0.00 in0.0 mm 0.00 in0.0 mm 0.00 in0.0 mm
07:42 AM 77.7°F25.4°C 69.9°F21.1°C 77% Calm Calm 0.4 mph0.6 kmh 30.04 in1017.3 mb 0.00 in0.0 mm 0.00 in0.0 mm 0.00 in0.0 mm
07:35 AM 77.4°F25.2°C 69.5°F20.8°C 77% Calm Calm 0.9 mph1.4 kmh 30.04 in1017.3 mb 0.00 in0.0 mm 0.00 in0.0 mm 0.00 in0.0 mm
07:31 AM 77.2°F25.1°C 69.4°F20.8°C 77% 0.9 mph SW1.4 kmh SW 0.9 mph1.4 kmh 30.04 in1017.3 mb 0.00 in0.0 mm 0.00 in0.0 mm 0.00 in0.0 mm
07:27 AM 77.0°F25.0°C 69.6°F20.9°C 78% 0.7 mph WSW1.1 kmh WSW 0.7 mph1.1 kmh 30.04 in1017.3 mb 0.00 in0.0 mm 0.00 in0.0 mm 0.00 in0.0 mm
07:20 AM 76.8°F24.9°C 69.4°F20.8°C 78% Calm Calm -- 30.04 in1017.3 mb 0.00 in0.0 mm 0.00 in0.0 mm 0.00 in0.0 mm
07:16 AM 76.6°F24.8°C 69.2°F20.7°C 78% Calm Calm -- 30.04 in1017.3 mb 0.00 in0.0 mm 0.00 in0.0 mm 0.00 in0.0 mm
07:12 AM 76.6°F24.8°C 69.2°F20.7°C 78% Calm Calm -- 30.03 in1016.9 mb 0.00 in0.0 mm 0.00 in0.0 mm 0.00 in0.0 mm
07:05 AM 76.5°F24.7°C 68.9°F20.5°C 78% Calm Calm -- 30.03 in1016.9 mb 0.00 in0.0 mm 0.00 in0.0 mm 0.00 in0.0 mm
07:01 AM 76.3°F24.6°C 68.9°F20.5°C 78% Calm Calm -- 30.03 in1016.9 mb 0.00 in0.0 mm 0.00 in0.0 mm 0.00 in0.0 mm
06:54 AM 76.5°F24.7°C 69.1°F20.6°C 78% Calm Calm -- 30.03 in1016.9 mb 0.00 in0.0 mm 0.00 in0.0 mm 0.00 in0.0 mm
06:50 AM 76.5°F24.7°C 68.7°F20.4°C 77% Calm Calm -- 30.03 in1016.9 mb 0.00 in0.0 mm 0.00 in0.0 mm 0.00 in0.0 mm
06:46 AM 76.5°F24.7°C 68.7°F20.4°C 77% Calm Calm -- 30.03 in1016.9 mb 0.00 in0.0 mm 0.00 in0.0 mm 0.00 in0.0 mm
06:40 AM 76.5°F24.7°C 68.7°F20.4°C 77% Calm Calm -- 30.02 in1016.6 mb 0.00 in0.0 mm 0.00 in0.0 mm 0.00 in0.0 mm
06:35 AM 76.5°F24.7°C 68.7°F20.4°C 77% Calm Calm -- 30.02 in1016.6 mb 0.00 in0.0 mm 0.00 in0.0 mm 0.00 in0.0 mm
06:31 AM 76.6°F24.8°C 68.9°F20.5°C 77% Calm Calm -- 30.02 in1016.6 mb 0.00 in0.0 mm 0.00 in0.0 mm 0.00 in0.0 mm
06:25 AM 76.6°F24.8°C 68.9°F20.5°C 77% Calm Calm -- 30.02 in1016.6 mb 0.00 in0.0 mm 0.00 in0.0 mm 0.00 in0.0 mm
06:20 AM 76.8°F24.9°C 69.0°F20.6°C 77% Calm Calm -- 30.02 in1016.6 mb 0.00 in0.0 mm 0.00 in0.0 mm 0.00 in0.0 mm
06:14 AM 76.8°F24.9°C 68.6°F20.3°C 76% Calm Calm -- 30.02 in1016.6 mb 0.00 in0.0 mm 0.00 in0.0 mm 0.00 in0.0 mm
06:10 AM 76.8°F24.9°C 68.6°F20.3°C 76% Calm Calm -- 30.01 in1016.3 mb 0.00 in0.0 mm 0.00 in0.0 mm 0.00 in0.0 mm
06:05 AM 76.8°F24.9°C 68.6°F20.3°C 76% Calm Calm -- 30.01 in1016.3 mb 0.00 in0.0 mm 0.00 in0.0 mm 0.00 in0.0 mm
05:59 AM 77.0°F25.0°C 68.8°F20.4°C 76% Calm Calm -- 30.01 in1016.3 mb 0.00 in0.0 mm 0.00 in0.0 mm 0.00 in0.0 mm
05:55 AM 77.2°F25.1°C 69.0°F20.6°C 76% Calm Calm -- 30.02 in1016.6 mb 0.00 in0.0 mm 0.00 in0.0 mm 0.00 in0.0 mm
05:48 AM 77.2°F25.1°C 68.6°F20.3°C 75% Calm Calm -- 30.01 in1016.3 mb 0.00 in0.0 mm 0.00 in0.0 mm 0.00 in0.0 mm
05:44 AM 77.2°F25.1°C 68.6°F20.3°C 75% Calm Calm -- 30.01 in1016.3 mb 0.00 in0.0 mm 0.00 in0.0 mm 0.00 in0.0 mm
05:40 AM 77.4°F25.2°C 68.8°F20.4°C 75% Calm Calm 0.2 mph0.3 kmh 30.01 in1016.3 mb 0.00 in0.0 mm 0.00 in0.0 mm 0.00 in0.0 mm
05:33 AM 77.5°F25.3°C 69.0°F20.6°C 75% Calm Calm 0.2 mph0.3 kmh 30.01 in1016.3 mb 0.00 in0.0 mm 0.00 in0.0 mm 0.00 in0.0 mm
05:29 AM 77.5°F25.3°C 69.0°F20.6°C 75% Calm Calm -- 30.01 in1016.3 mb 0.00 in0.0 mm 0.00 in0.0 mm 0.00 in0.0 mm
05:23 AM 77.5°F25.3°C 68.6°F20.3°C 74% Calm Calm 0.4 mph0.6 kmh 30.01 in1016.3 mb 0.00 in0.0 mm 0.00 in0.0 mm 0.00 in0.0 mm
05:18 AM 77.5°F25.3°C 68.6°F20.3°C 74% Calm Calm 0.4 mph0.6 kmh 30.01 in1016.3 mb 0.00 in0.0 mm 0.00 in0.0 mm 0.00 in0.0 mm
05:12 AM 77.7°F25.4°C 68.7°F20.4°C 74% Calm Calm -- 30.01 in1016.3 mb 0.00 in0.0 mm 0.00 in0.0 mm 0.00 in0.0 mm
05:08 AM 77.7°F25.4°C 68.7°F20.4°C 74% Calm Calm -- 30.01 in1016.3 mb 0.00 in0.0 mm 0.00 in0.0 mm 0.00 in0.0 mm
04:59 AM 77.7°F25.4°C 68.7°F20.4°C 74% Calm Calm -- 30.01 in1016.3 mb 0.00 in0.0 mm 0.00 in0.0 mm 0.00 in0.0 mm
04:55 AM 77.7°F25.4°C 68.7°F20.4°C 74% Calm Calm -- 30.01 in1016.3 mb 0.00 in0.0 mm 0.00 in0.0 mm 0.00 in0.0 mm
04:48 AM 77.9°F25.5°C 68.9°F20.5°C 74% Calm Calm -- 30.01 in1016.3 mb 0.00 in0.0 mm 0.00 in0.0 mm 0.00 in0.0 mm
04:44 AM 77.9°F25.5°C 68.9°F20.5°C 74% Calm Calm -- 30.00 in1015.9 mb 0.00 in0.0 mm 0.00 in0.0 mm 0.00 in0.0 mm
04:38 AM 78.1°F25.6°C 69.1°F20.6°C 74% Calm Calm -- 30.00 in1015.9 mb 0.00 in0.0 mm 0.00 in0.0 mm 0.00 in0.0 mm
04:33 AM 78.1°F25.6°C 69.1°F20.6°C 74% Calm Calm -- 30.00 in1015.9 mb 0.00 in0.0 mm 0.00 in0.0 mm 0.00 in0.0 mm
04:29 AM 78.1°F25.6°C 69.1°F20.6°C 74% Calm Calm -- 30.00 in1015.9 mb 0.00 in0.0 mm 0.00 in0.0 mm 0.00 in0.0 mm
04:23 AM 78.1°F25.6°C 68.7°F20.4°C 73% Calm Calm -- 30.00 in1015.9 mb 0.00 in0.0 mm 0.00 in0.0 mm 0.00 in0.0 mm
04:18 AM 78.1°F25.6°C 68.7°F20.4°C 73% Calm Calm -- 30.00 in1015.9 mb 0.00 in0.0 mm 0.00 in0.0 mm 0.00 in0.0 mm
04:12 AM 78.1°F25.6°C 68.7°F20.4°C 73% Calm Calm -- 30.00 in1015.9 mb 0.00 in0.0 mm 0.00 in0.0 mm 0.00 in0.0 mm
04:08 AM 78.3°F25.7°C 68.9°F20.5°C 73% Calm Calm -- 30.00 in1015.9 mb 0.00 in0.0 mm 0.00 in0.0 mm 0.00 in0.0 mm
04:01 AM 78.4°F25.8°C 69.0°F20.6°C 73% Calm Calm -- 30.00 in1015.9 mb 0.00 in0.0 mm 0.00 in0.0 mm 0.00 in0.0 mm
03:55 AM 78.4°F25.8°C 68.6°F20.3°C 72% Calm Calm -- 30.00 in1015.9 mb 0.00 in0.0 mm 0.00 in0.0 mm 0.00 in0.0 mm
03:50 AM 78.6°F25.9°C 68.8°F20.4°C 72% Calm Calm -- 30.00 in1015.9 mb 0.00 in0.0 mm 0.00 in0.0 mm 0.00 in0.0 mm
03:44 AM 78.6°F25.9°C 68.8°F20.4°C 72% Calm Calm -- 30.00 in1015.9 mb 0.00 in0.0 mm 0.00 in0.0 mm 0.00 in0.0 mm
03:38 AM 78.6°F25.9°C 68.8°F20.4°C 72% Calm Calm -- 30.00 in1015.9 mb 0.00 in0.0 mm 0.00 in0.0 mm 0.00 in0.0 mm
03:33 AM 78.6°F25.9°C 68.8°F20.4°C 72% Calm Calm -- 30.00 in1015.9 mb 0.00 in0.0 mm 0.00 in0.0 mm 0.00 in0.0 mm
03:29 AM 79.0°F26.1°C 68.8°F20.4°C 71% Calm Calm -- 30.00 in1015.9 mb 0.00 in0.0 mm 0.00 in0.0 mm 0.00 in0.0 mm
03:23 AM 79.0°F26.1°C 68.8°F20.4°C 71% Calm Calm -- 30.00 in1015.9 mb 0.00 in0.0 mm 0.00 in0.0 mm 0.00 in0.0 mm
03:18 AM 79.0°F26.1°C 68.8°F20.4°C 71% Calm Calm -- 30.00 in1015.9 mb 0.00 in0.0 mm 0.00 in0.0 mm 0.00 in0.0 mm
03:12 AM 79.2°F26.2°C 68.9°F20.5°C 71% Calm Calm -- 30.00 in1015.9 mb 0.00 in0.0 mm 0.00 in0.0 mm 0.00 in0.0 mm
03:08 AM 79.2°F26.2°C 68.9°F20.5°C 71% Calm Calm -- 30.00 in1015.9 mb 0.00 in0.0 mm 0.00 in0.0 mm 0.00 in0.0 mm
02:59 AM 79.3°F26.3°C 69.1°F20.6°C 71% Calm Calm -- 30.00 in1015.9 mb 0.00 in0.0 mm 0.00 in0.0 mm 0.00 in0.0 mm
02:55 AM 79.3°F26.3°C 69.1°F20.6°C 71% Calm Calm -- 30.00 in1015.9 mb 0.00 in0.0 mm 0.00 in0.0 mm 0.00 in0.0 mm
02:50 AM 79.5°F26.4°C 69.3°F20.7°C 71% Calm Calm -- 30.01 in1016.3 mb 0.00 in0.0 mm 0.00 in0.0 mm 0.00 in0.0 mm
02:44 AM 79.5°F26.4°C 69.3°F20.7°C 71% Calm Calm -- 30.01 in1016.3 mb 0.00 in0.0 mm 0.00 in0.0 mm 0.00 in0.0 mm
02:38 AM 79.7°F26.5°C 69.5°F20.8°C 71% Calm Calm 0.4 mph0.6 kmh 30.01 in1016.3 mb 0.00 in0.0 mm 0.00 in0.0 mm 0.00 in0.0 mm
02:31 AM 79.9°F26.6°C 69.3°F20.7°C 70% Calm Calm -- 30.00 in1015.9 mb 0.00 in0.0 mm 0.00 in0.0 mm 0.00 in0.0 mm
02:27 AM 79.9°F26.6°C 69.3°F20.7°C 70% Calm Calm -- 30.00 in1015.9 mb 0.00 in0.0 mm 0.00 in0.0 mm 0.00 in0.0 mm
02:20 AM 80.1°F26.7°C 69.4°F20.8°C 70% Calm Calm 0.7 mph1.1 kmh 30.00 in1015.9 mb 0.00 in0.0 mm 0.00 in0.0 mm 0.00 in0.0 mm
02:16 AM 80.2°F26.8°C 69.6°F20.9°C 70% Calm Calm 0.7 mph1.1 kmh 30.00 in1015.9 mb 0.00 in0.0 mm 0.00 in0.0 mm 0.00 in0.0 mm
02:12 AM 80.2°F26.8°C 69.6°F20.9°C 70% Calm Calm 0.4 mph0.6 kmh 30.01 in1016.3 mb 0.00 in0.0 mm 0.00 in0.0 mm 0.00 in0.0 mm
02:05 AM 80.2°F26.8°C 69.6°F20.9°C 70% 0.4 mph SW0.6 kmh SW 0.4 mph0.6 kmh 30.01 in1016.3 mb 0.00 in0.0 mm 0.00 in0.0 mm 0.00 in0.0 mm
02:01 AM 80.4°F26.9°C 69.8°F21.0°C 70% Calm Calm 0.4 mph0.6 kmh 30.01 in1016.3 mb 0.00 in0.0 mm 0.00 in0.0 mm 0.00 in0.0 mm
01:55 AM 80.4°F26.9°C 69.8°F21.0°C 70% Calm Calm -- 30.01 in1016.3 mb 0.00 in0.0 mm 0.00 in0.0 mm 0.00 in0.0 mm
01:50 AM 80.4°F26.9°C 69.8°F21.0°C 70% Calm Calm -- 30.01 in1016.3 mb 0.00 in0.0 mm 0.00 in0.0 mm 0.00 in0.0 mm
01:42 AM 80.8°F27.1°C 70.1°F21.2°C 70% Calm Calm -- 30.01 in1016.3 mb 0.00 in0.0 mm 0.00 in0.0 mm 0.00 in0.0 mm
01:38 AM 80.8°F27.1°C 70.1°F21.2°C 70% Calm Calm -- 30.02 in1016.6 mb 0.00 in0.0 mm 0.00 in0.0 mm 0.00 in0.0 mm
01:31 AM 80.8°F27.1°C 70.1°F21.2°C 70% Calm Calm -- 30.02 in1016.6 mb 0.00 in0.0 mm 0.00 in0.0 mm 0.00 in0.0 mm
01:27 AM 80.8°F27.1°C 70.1°F21.2°C 70% Calm Calm 0.7 mph1.1 kmh 30.02 in1016.6 mb 0.00 in0.0 mm 0.00 in0.0 mm 0.00 in0.0 mm
01:21 AM 80.8°F27.1°C 70.1°F21.2°C 70% 0.7 mph W1.1 kmh W 0.7 mph1.1 kmh 30.02 in1016.6 mb 0.00 in0.0 mm 0.00 in0.0 mm 0.00 in0.0 mm
01:16 AM 80.8°F27.1°C 70.1°F21.2°C 70% Calm Calm 0.7 mph1.1 kmh 30.02 in1016.6 mb 0.00 in0.0 mm 0.00 in0.0 mm 0.00 in0.0 mm
01:10 AM 80.6°F27.0°C 70.0°F21.1°C 70% 0.7 mph SSW1.1 kmh SSW 0.7 mph1.1 kmh 30.03 in1016.9 mb 0.00 in0.0 mm 0.00 in0.0 mm 0.00 in0.0 mm
01:06 AM 80.6°F27.0°C 70.0°F21.1°C 70% 0.4 mph SW0.6 kmh SW 0.4 mph0.6 kmh 30.03 in1016.9 mb 0.00 in0.0 mm 0.00 in0.0 mm 0.00 in0.0 mm
12:59 AM 80.6°F27.0°C 69.5°F20.8°C 69% Calm Calm -- 30.03 in1016.9 mb 0.00 in0.0 mm 0.00 in0.0 mm 0.00 in0.0 mm
12:55 AM 80.4°F26.9°C 69.3°F20.7°C 69% Calm Calm -- 30.03 in1016.9 mb 0.00 in0.0 mm 0.00 in0.0 mm 0.00 in0.0 mm
12:51 AM 80.6°F27.0°C 69.5°F20.8°C 69% Calm Calm -- 30.04 in1017.3 mb 0.00 in0.0 mm 0.00 in0.0 mm 0.00 in0.0 mm
12:44 AM 80.6°F27.0°C 69.5°F20.8°C 69% Calm Calm -- 30.04 in1017.3 mb 0.00 in0.0 mm 0.00 in0.0 mm 0.00 in0.0 mm
12:40 AM 80.8°F27.1°C 69.7°F20.9°C 69% Calm Calm -- 30.04 in1017.3 mb 0.00 in0.0 mm 0.00 in0.0 mm 0.00 in0.0 mm
12:33 AM 80.8°F27.1°C 69.7°F20.9°C 69% Calm Calm -- 30.04 in1017.3 mb 0.00 in0.0 mm 0.00 in0.0 mm 0.00 in0.0 mm
12:29 AM 80.8°F27.1°C 69.7°F20.9°C 69% Calm Calm -- 30.04 in1017.3 mb 0.00 in0.0 mm 0.00 in0.0 mm 0.00 in0.0 mm
12:25 AM 80.8°F27.1°C 69.2°F20.7°C 68% Calm Calm -- 30.04 in1017.3 mb 0.00 in0.0 mm 0.00 in0.0 mm 0.00 in0.0 mm
12:18 AM 81.0°F27.2°C 69.4°F20.8°C 68% Calm Calm -- 30.04 in1017.3 mb 0.00 in0.0 mm 0.00 in0.0 mm 0.00 in0.0 mm
12:14 AM 81.0°F27.2°C 69.4°F20.8°C 68% Calm Calm -- 30.04 in1017.3 mb 0.00 in0.0 mm 0.00 in0.0 mm 0.00 in0.0 mm
12:08 AM 81.0°F27.2°C 69.4°F20.8°C 68% Calm Calm -- 30.04 in1017.3 mb 0.00 in0.0 mm 0.00 in0.0 mm 0.00 in0.0 mm
12:01 AM 81.1°F27.3°C 69.6°F20.9°C 68% Calm Calm -- 30.05 in1017.6 mb 0.00 in0.0 mm 0.00 in0.0 mm 0.00 in0.0 mm